sensor_id;sensor_type;location;lat;lon;timestamp;pressure;altitude;pressure_sealevel;temperature;humidity
19114;BME280;9689;51.052;13.772;2023-05-12T00:02:20;100318.47;;;14.92;52.04
19114;BME280;9689;51.052;13.772;2023-05-12T00:07:21;100329.97;;;14.90;53.19
19114;BME280;9689;51.052;13.772;2023-05-12T00:12:22;100331.94;;;14.83;54.11
19114;BME280;9689;51.052;13.772;2023-05-12T00:17:24;100334.50;;;14.85;53.87
19114;BME280;9689;51.052;13.772;2023-05-12T00:22:26;100328.16;;;14.67;54.93
19114;BME280;9689;51.052;13.772;2023-05-12T00:27:27;100329.16;;;14.64;54.96
19114;BME280;9689;51.052;13.772;2023-05-12T00:32:31;100324.09;;;14.60;55.82
19114;BME280;9689;51.052;13.772;2023-05-12T00:37:32;100326.91;;;14.54;56.32
19114;BME280;9689;51.052;13.772;2023-05-12T00:42:33;100334.03;;;14.50;56.89
19114;BME280;9689;51.052;13.772;2023-05-12T00:47:35;100328.97;;;14.44;57.82
19114;BME280;9689;51.052;13.772;2023-05-12T00:52:36;100337.50;;;14.51;58.42
19114;BME280;9689;51.052;13.772;2023-05-12T00:57:37;100338.09;;;14.34;59.69
19114;BME280;9689;51.052;13.772;2023-05-12T01:02:40;100337.06;;;14.38;60.05
19114;BME280;9689;51.052;13.772;2023-05-12T01:07:41;100336.47;;;14.30;60.71
19114;BME280;9689;51.052;13.772;2023-05-12T01:12:42;100343.78;;;14.20;61.01
19114;BME280;9689;51.052;13.772;2023-05-12T01:17:46;100338.34;;;14.26;60.40
19114;BME280;9689;51.052;13.772;2023-05-12T01:22:52;100336.53;;;14.28;60.88
19114;BME280;9689;51.052;13.772;2023-05-12T01:27:57;100333.25;;;14.22;61.63
19114;BME280;9689;51.052;13.772;2023-05-12T01:32:57;100336.06;;;14.15;61.93
19114;BME280;9689;51.052;13.772;2023-05-12T01:37:59;100334.28;;;14.18;61.41
19114;BME280;9689;51.052;13.772;2023-05-12T01:43:02;100341.22;;;14.19;61.70
19114;BME280;9689;51.052;13.772;2023-05-12T01:48:04;100350.25;;;14.10;62.33
19114;BME280;9689;51.052;13.772;2023-05-12T01:53:05;100352.81;;;14.11;62.60
19114;BME280;9689;51.052;13.772;2023-05-12T01:58:07;100357.53;;;14.02;62.68
19114;BME280;9689;51.052;13.772;2023-05-12T02:03:08;100357.59;;;14.00;62.31
19114;BME280;9689;51.052;13.772;2023-05-12T02:08:10;100358.75;;;13.92;62.85
19114;BME280;9689;51.052;13.772;2023-05-12T02:13:12;100359.84;;;13.84;63.01
19114;BME280;9689;51.052;13.772;2023-05-12T02:18:13;100358.19;;;13.82;63.03
19114;BME280;9689;51.052;13.772;2023-05-12T02:23:14;100363.63;;;13.76;63.25
19114;BME280;9689;51.052;13.772;2023-05-12T02:28:16;100366.19;;;13.77;63.29
19114;BME280;9689;51.052;13.772;2023-05-12T02:33:18;100365.63;;;13.68;63.72
19114;BME280;9689;51.052;13.772;2023-05-12T02:38:19;100357.09;;;13.61;63.98
19114;BME280;9689;51.052;13.772;2023-05-12T02:43:22;100362.50;;;13.56;64.29
19114;BME280;9689;51.052;13.772;2023-05-12T02:48:23;100362.50;;;13.56;64.65
19114;BME280;9689;51.052;13.772;2023-05-12T02:53:24;100368.72;;;13.52;64.83
19114;BME280;9689;51.052;13.772;2023-05-12T02:58:27;100363.81;;;13.42;65.50
19114;BME280;9689;51.052;13.772;2023-05-12T03:03:28;100357.03;;;13.35;65.64
19114;BME280;9689;51.052;13.772;2023-05-12T03:08:29;100367.56;;;13.33;66.19
19114;BME280;9689;51.052;13.772;2023-05-12T03:13:31;100367.47;;;13.36;66.02
19114;BME280;9689;51.052;13.772;2023-05-12T03:18:32;100369.28;;;13.34;66.36
19114;BME280;9689;51.052;13.772;2023-05-12T03:23:33;100364.22;;;13.28;66.11
19114;BME280;9689;51.052;13.772;2023-05-12T03:28:35;100367.94;;;13.21;66.63
19114;BME280;9689;51.052;13.772;2023-05-12T03:33:36;100368.84;;;13.18;66.44
19114;BME280;9689;51.052;13.772;2023-05-12T03:38:36;100368.81;;;13.20;65.26
19114;BME280;9689;51.052;13.772;2023-05-12T03:43:38;100374.69;;;13.28;64.36
19114;BME280;9689;51.052;13.772;2023-05-12T03:48:40;100373.66;;;13.34;65.25
19114;BME280;9689;51.052;13.772;2023-05-12T03:53:41;100379.00;;;13.29;65.24
19114;BME280;9689;51.052;13.772;2023-05-12T03:58:46;100378.03;;;13.33;65.47
19114;BME280;9689;51.052;13.772;2023-05-12T04:03:48;100375.19;;;13.41;64.73
19114;BME280;9689;51.052;13.772;2023-05-12T04:08:49;100380.84;;;13.55;65.72
19114;BME280;9689;51.052;13.772;2023-05-12T04:13:51;100381.97;;;13.46;66.38
19114;BME280;9689;51.052;13.772;2023-05-12T04:18:51;100394.81;;;13.55;65.59
19114;BME280;9689;51.052;13.772;2023-05-12T04:23:52;100387.56;;;13.64;66.30
19114;BME280;9689;51.052;13.772;2023-05-12T04:28:58;100392.47;;;13.74;65.88
19114;BME280;9689;51.052;13.772;2023-05-12T04:33:59;100396.63;;;13.81;65.89
19114;BME280;9689;51.052;13.772;2023-05-12T04:39:00;100393.59;;;13.94;65.73
19114;BME280;9689;51.052;13.772;2023-05-12T04:44:03;100399.28;;;14.06;65.60
19114;BME280;9689;51.052;13.772;2023-05-12T04:49:05;100406.84;;;14.15;65.37
19114;BME280;9689;51.052;13.772;2023-05-12T04:54:05;100406.03;;;14.13;65.04
19114;BME280;9689;51.052;13.772;2023-05-12T04:59:09;100399.88;;;14.14;64.88
19114;BME280;9689;51.052;13.772;2023-05-12T05:04:14;100405.97;;;14.15;64.37
19114;BME280;9689;51.052;13.772;2023-05-12T05:09:15;100408.53;;;14.18;65.26
19114;BME280;9689;51.052;13.772;2023-05-12T05:14:17;100404.28;;;14.14;65.26
19114;BME280;9689;51.052;13.772;2023-05-12T05:19:18;100414.44;;;14.23;63.96
19114;BME280;9689;51.052;13.772;2023-05-12T05:24:39;100416.81;;;14.31;63.32
19114;BME280;9689;51.052;13.772;2023-05-12T05:29:41;100411.31;;;14.65;61.76
19114;BME280;9689;51.052;13.772;2023-05-12T05:34:42;100415.81;;;14.86;60.28
19114;BME280;9689;51.052;13.772;2023-05-12T05:39:43;100413.94;;;15.13;59.08
19114;BME280;9689;51.052;13.772;2023-05-12T05:44:46;100414.19;;;15.31;58.49
19114;BME280;9689;51.052;13.772;2023-05-12T05:49:49;100408.69;;;15.37;57.12
19114;BME280;9689;51.052;13.772;2023-05-12T05:54:49;100416.41;;;15.41;56.59
19114;BME280;9689;51.052;13.772;2023-05-12T05:59:53;100421.53;;;15.68;56.46
19114;BME280;9689;51.052;13.772;2023-05-12T06:04:54;100425.06;;;16.10;54.82
19114;BME280;9689;51.052;13.772;2023-05-12T06:09:55;100418.97;;;16.30;53.42
19114;BME280;9689;51.052;13.772;2023-05-12T06:14:57;100422.59;;;16.28;55.48
19114;BME280;9689;51.052;13.772;2023-05-12T06:19:57;100429.03;;;16.41;54.49
19114;BME280;9689;51.052;13.772;2023-05-12T06:24:58;100433.91;;;16.50;54.37
19114;BME280;9689;51.052;13.772;2023-05-12T06:30:00;100430.41;;;16.72;53.04
19114;BME280;9689;51.052;13.772;2023-05-12T06:35:01;100427.13;;;16.87;53.00
19114;BME280;9689;51.052;13.772;2023-05-12T06:40:02;100428.09;;;17.05;52.55
19114;BME280;9689;51.052;13.772;2023-05-12T06:45:05;100428.72;;;17.10;52.74
19114;BME280;9689;51.052;13.772;2023-05-12T06:50:06;100424.94;;;16.97;52.87
19114;BME280;9689;51.052;13.772;2023-05-12T06:55:08;100428.94;;;17.05;52.66
19114;BME280;9689;51.052;13.772;2023-05-12T07:00:12;100421.41;;;17.16;50.29
19114;BME280;9689;51.052;13.772;2023-05-12T07:05:13;100427.16;;;17.06;49.09
19114;BME280;9689;51.052;13.772;2023-05-12T07:10:14;100417.22;;;17.12;48.31
19114;BME280;9689;51.052;13.772;2023-05-12T07:15:16;100413.75;;;17.31;48.97
19114;BME280;9689;51.052;13.772;2023-05-12T07:20:18;100416.72;;;17.42;48.14
19114;BME280;9689;51.052;13.772;2023-05-12T07:25:18;100413.94;;;17.45;45.83
19114;BME280;9689;51.052;13.772;2023-05-12T07:30:22;100412.97;;;17.47;46.47
19114;BME280;9689;51.052;13.772;2023-05-12T07:35:22;100408.97;;;17.76;45.51
19114;BME280;9689;51.052;13.772;2023-05-12T07:40:23;100417.97;;;17.72;44.94
19114;BME280;9689;51.052;13.772;2023-05-12T07:45:25;100419.22;;;17.83;45.25
19114;BME280;9689;51.052;13.772;2023-05-12T07:50:26;100412.19;;;17.83;44.86
19114;BME280;9689;51.052;13.772;2023-05-12T07:55:27;100414.22;;;18.13;45.45
19114;BME280;9689;51.052;13.772;2023-05-12T08:00:29;100414.72;;;18.21;45.41
19114;BME280;9689;51.052;13.772;2023-05-12T08:05:30;100407.75;;;18.37;44.98
19114;BME280;9689;51.052;13.772;2023-05-12T08:10:30;100408.66;;;18.36;44.64
19114;BME280;9689;51.052;13.772;2023-05-12T08:15:33;100409.13;;;18.27;44.25
19114;BME280;9689;51.052;13.772;2023-05-12T08:20:33;100398.88;;;18.55;43.65
19114;BME280;9689;51.052;13.772;2023-05-12T08:25:34;100412.50;;;18.65;42.49
19114;BME280;9689;51.052;13.772;2023-05-12T08:30:37;100411.53;;;18.83;42.91
19114;BME280;9689;51.052;13.772;2023-05-12T08:35:37;100405.06;;;19.22;43.09
19114;BME280;9689;51.052;13.772;2023-05-12T08:40:45;100405.72;;;19.59;42.41
19114;BME280;9689;51.052;13.772;2023-05-12T08:45:48;100409.13;;;19.76;41.72
19114;BME280;9689;51.052;13.772;2023-05-12T08:50:50;100407.25;;;19.79;41.72
19114;BME280;9689;51.052;13.772;2023-05-12T08:55:53;100415.91;;;19.96;41.70
19114;BME280;9689;51.052;13.772;2023-05-12T09:01:16;100408.47;;;20.49;41.01
19114;BME280;9689;51.052;13.772;2023-05-12T09:06:17;100407.97;;;20.72;39.65
19114;BME280;9689;51.052;13.772;2023-05-12T09:11:19;100406.59;;;21.38;37.75
19114;BME280;9689;51.052;13.772;2023-05-12T09:16:23;100405.91;;;21.49;36.63
19114;BME280;9689;51.052;13.772;2023-05-12T09:21:25;100412.72;;;21.80;35.41
19114;BME280;9689;51.052;13.772;2023-05-12T09:26:27;100403.75;;;22.09;35.26
19114;BME280;9689;51.052;13.772;2023-05-12T09:31:29;100400.38;;;22.20;34.41
19114;BME280;9689;51.052;13.772;2023-05-12T09:36:30;100401.50;;;22.55;34.24
19114;BME280;9689;51.052;13.772;2023-05-12T09:41:34;100407.91;;;22.78;33.25
19114;BME280;9689;51.052;13.772;2023-05-12T09:46:36;100404.66;;;22.88;31.74
19114;BME280;9689;51.052;13.772;2023-05-12T09:51:39;100402.09;;;22.86;31.77
19114;BME280;9689;51.052;13.772;2023-05-12T09:56:40;100389.63;;;22.61;31.35
19114;BME280;9689;51.052;13.772;2023-05-12T10:01:42;100400.03;;;22.64;31.24
19114;BME280;9689;51.052;13.772;2023-05-12T10:06:44;100385.31;;;22.86;31.00
19114;BME280;9689;51.052;13.772;2023-05-12T10:11:46;100391.97;;;22.91;29.20
19114;BME280;9689;51.052;13.772;2023-05-12T10:16:54;100384.13;;;23.02;29.49
19114;BME280;9689;51.052;13.772;2023-05-12T10:21:56;100380.28;;;23.56;29.20
19114;BME280;9689;51.052;13.772;2023-05-12T10:26:57;100379.25;;;23.82;28.46
19114;BME280;9689;51.052;13.772;2023-05-12T10:31:59;100371.34;;;23.44;28.84
19114;BME280;9689;51.052;13.772;2023-05-12T10:37:03;100377.78;;;24.13;28.53
19114;BME280;9689;51.052;13.772;2023-05-12T10:42:07;100376.47;;;24.08;28.47
19114;BME280;9689;51.052;13.772;2023-05-12T10:47:12;100373.66;;;24.33;28.85
19114;BME280;9689;51.052;13.772;2023-05-12T10:52:18;100371.19;;;24.30;27.79
19114;BME280;9689;51.052;13.772;2023-05-12T10:57:19;100363.44;;;23.68;28.36
19114;BME280;9689;51.052;13.772;2023-05-12T11:02:25;100370.50;;;24.04;27.39
19114;BME280;9689;51.052;13.772;2023-05-12T11:07:31;100378.91;;;24.46;28.13
19114;BME280;9689;51.052;13.772;2023-05-12T11:12:35;100371.34;;;24.05;27.97
19114;BME280;9689;51.052;13.772;2023-05-12T11:17:38;100367.97;;;24.14;28.04
19114;BME280;9689;51.052;13.772;2023-05-12T11:22:40;100367.41;;;23.86;29.23
19114;BME280;9689;51.052;13.772;2023-05-12T11:27:45;100374.41;;;23.14;30.32
19114;BME280;9689;51.052;13.772;2023-05-12T11:32:58;100386.31;;;22.57;31.94
19114;BME280;9689;51.052;13.772;2023-05-12T11:37:59;100378.00;;;22.49;33.00
19114;BME280;9689;51.052;13.772;2023-05-12T11:43:08;100388.00;;;22.33;34.39
19114;BME280;9689;51.052;13.772;2023-05-12T11:48:12;100380.47;;;22.52;34.84
19114;BME280;9689;51.052;13.772;2023-05-12T11:53:16;100397.81;;;22.71;34.19
19114;BME280;9689;51.052;13.772;2023-05-12T11:58:18;100382.84;;;23.45;32.58
19114;BME280;9689;51.052;13.772;2023-05-12T12:03:22;100385.66;;;23.30;33.17
19114;BME280;9689;51.052;13.772;2023-05-12T12:08:23;100388.94;;;23.34;31.47
19114;BME280;9689;51.052;13.772;2023-05-12T12:13:24;100397.88;;;23.33;31.17
19114;BME280;9689;51.052;13.772;2023-05-12T12:18:27;100398.31;;;22.76;31.82
19114;BME280;9689;51.052;13.772;2023-05-12T12:23:28;100410.44;;;22.80;32.66
19114;BME280;9689;51.052;13.772;2023-05-12T12:28:39;100406.00;;;22.68;33.38
19114;BME280;9689;51.052;13.772;2023-05-12T12:33:41;100412.88;;;22.45;33.15
19114;BME280;9689;51.052;13.772;2023-05-12T12:38:42;100398.47;;;21.95;34.08
19114;BME280;9689;51.052;13.772;2023-05-12T12:43:43;100410.16;;;22.97;33.86
19114;BME280;9689;51.052;13.772;2023-05-12T12:48:45;100393.03;;;23.51;32.33
19114;BME280;9689;51.052;13.772;2023-05-12T12:53:46;100400.59;;;23.57;31.52
19114;BME280;9689;51.052;13.772;2023-05-12T12:58:47;100401.84;;;23.15;32.41
19114;BME280;9689;51.052;13.772;2023-05-12T13:03:49;100395.47;;;23.17;31.84
19114;BME280;9689;51.052;13.772;2023-05-12T13:08:49;100404.09;;;23.08;31.85
19114;BME280;9689;51.052;13.772;2023-05-12T13:13:50;100393.91;;;23.64;30.88
19114;BME280;9689;51.052;13.772;2023-05-12T13:18:52;100403.47;;;23.54;30.94
19114;BME280;9689;51.052;13.772;2023-05-12T13:23:53;100399.38;;;22.73;31.71
19114;BME280;9689;51.052;13.772;2023-05-12T13:28:58;100404.06;;;22.44;32.49
19114;BME280;9689;51.052;13.772;2023-05-12T13:34:00;100408.00;;;22.12;32.87
19114;BME280;9689;51.052;13.772;2023-05-12T13:39:01;100402.56;;;22.53;31.45
19114;BME280;9689;51.052;13.772;2023-05-12T13:44:02;100388.47;;;23.03;31.32
19114;BME280;9689;51.052;13.772;2023-05-12T13:49:04;100391.66;;;22.96;31.82
19114;BME280;9689;51.052;13.772;2023-05-12T13:54:05;100390.34;;;23.76;30.10
19114;BME280;9689;51.052;13.772;2023-05-12T13:59:07;100378.78;;;23.15;30.46
19114;BME280;9689;51.052;13.772;2023-05-12T14:04:10;100381.50;;;23.26;31.27
19114;BME280;9689;51.052;13.772;2023-05-12T14:09:11;100391.44;;;23.11;31.00
19114;BME280;9689;51.052;13.772;2023-05-12T14:14:12;100393.16;;;22.87;32.06
19114;BME280;9689;51.052;13.772;2023-05-12T14:19:14;100413.88;;;21.34;41.77
19114;BME280;9689;51.052;13.772;2023-05-12T14:24:15;100438.31;;;18.93;52.00
19114;BME280;9689;51.052;13.772;2023-05-12T14:29:16;100441.94;;;17.85;53.20
19114;BME280;9689;51.052;13.772;2023-05-12T14:34:18;100434.09;;;17.65;43.56
19114;BME280;9689;51.052;13.772;2023-05-12T14:39:19;100432.88;;;17.53;46.43
19114;BME280;9689;51.052;13.772;2023-05-12T14:44:19;100441.19;;;17.83;51.19
19114;BME280;9689;51.052;13.772;2023-05-12T14:49:21;100440.72;;;17.92;50.75
19114;BME280;9689;51.052;13.772;2023-05-12T14:54:22;100437.22;;;18.45;48.96
19114;BME280;9689;51.052;13.772;2023-05-12T14:59:24;100437.94;;;18.83;46.35
19114;BME280;9689;51.052;13.772;2023-05-12T15:04:26;100420.44;;;18.98;44.44
19114;BME280;9689;51.052;13.772;2023-05-12T15:09:27;100413.53;;;19.29;42.45
19114;BME280;9689;51.052;13.772;2023-05-12T15:14:27;100420.72;;;19.58;41.90
19114;BME280;9689;51.052;13.772;2023-05-12T15:19:29;100414.81;;;20.00;43.79
19114;BME280;9689;51.052;13.772;2023-05-12T15:24:30;100416.28;;;20.36;43.87
19114;BME280;9689;51.052;13.772;2023-05-12T15:29:31;100417.38;;;20.32;43.75
19114;BME280;9689;51.052;13.772;2023-05-12T15:34:33;100414.16;;;20.57;43.33
19114;BME280;9689;51.052;13.772;2023-05-12T15:39:34;100410.72;;;20.99;43.09
19114;BME280;9689;51.052;13.772;2023-05-12T15:44:35;100405.03;;;21.20;42.00
19114;BME280;9689;51.052;13.772;2023-05-12T15:49:36;100403.09;;;21.37;38.97
19114;BME280;9689;51.052;13.772;2023-05-12T15:54:37;100413.97;;;21.47;38.79
19114;BME280;9689;51.052;13.772;2023-05-12T15:59:38;100417.38;;;21.21;40.43
19114;BME280;9689;51.052;13.772;2023-05-12T16:04:40;100421.91;;;21.04;41.11
19114;BME280;9689;51.052;13.772;2023-05-12T16:09:40;100419.13;;;20.33;44.05
19114;BME280;9689;51.052;13.772;2023-05-12T16:14:41;100409.97;;;19.77;44.37
19114;BME280;9689;51.052;13.772;2023-05-12T16:19:43;100409.16;;;19.43;43.56
19114;BME280;9689;51.052;13.772;2023-05-12T16:24:44;100414.13;;;19.49;44.75
19114;BME280;9689;51.052;13.772;2023-05-12T16:29:44;100417.47;;;19.04;45.11
19114;BME280;9689;51.052;13.772;2023-05-12T16:34:49;100406.19;;;19.34;44.69
19114;BME280;9689;51.052;13.772;2023-05-12T16:39:50;100413.78;;;19.40;43.47
19114;BME280;9689;51.052;13.772;2023-05-12T16:44:51;100432.59;;;19.67;44.54
19114;BME280;9689;51.052;13.772;2023-05-12T16:49:54;100446.06;;;19.78;44.14
19114;BME280;9689;51.052;13.772;2023-05-12T16:54:56;100460.09;;;19.47;47.30
19114;BME280;9689;51.052;13.772;2023-05-12T16:59:57;100474.25;;;19.13;48.53
19114;BME280;9689;51.052;13.772;2023-05-12T17:04:59;100475.72;;;19.01;47.91
19114;BME280;9689;51.052;13.772;2023-05-12T17:10:00;100486.09;;;18.71;48.91
19114;BME280;9689;51.052;13.772;2023-05-12T17:15:01;100486.25;;;18.32;48.11
19114;BME280;9689;51.052;13.772;2023-05-12T17:20:09;100494.72;;;18.39;48.73
19114;BME280;9689;51.052;13.772;2023-05-12T17:25:10;100489.31;;;17.87;48.56
19114;BME280;9689;51.052;13.772;2023-05-12T17:30:11;100486.75;;;18.04;49.64
19114;BME280;9689;51.052;13.772;2023-05-12T17:35:13;100498.66;;;18.66;47.99
19114;BME280;9689;51.052;13.772;2023-05-12T17:40:14;100499.00;;;19.61;45.76
19114;BME280;9689;51.052;13.772;2023-05-12T17:45:16;100505.03;;;18.97;46.54
19114;BME280;9689;51.052;13.772;2023-05-12T17:50:19;100498.00;;;18.44;47.68
19114;BME280;9689;51.052;13.772;2023-05-12T17:55:20;100497.13;;;18.26;48.16
19114;BME280;9689;51.052;13.772;2023-05-12T18:00:21;100496.47;;;17.85;49.81
19114;BME280;9689;51.052;13.772;2023-05-12T18:05:23;100493.41;;;17.75;50.00
19114;BME280;9689;51.052;13.772;2023-05-12T18:10:24;100499.59;;;17.74;51.32
19114;BME280;9689;51.052;13.772;2023-05-12T18:15:25;100506.88;;;17.48;50.66
19114;BME280;9689;51.052;13.772;2023-05-12T18:20:28;100499.09;;;17.45;51.10
19114;BME280;9689;51.052;13.772;2023-05-12T18:25:29;100498.16;;;17.28;51.12
19114;BME280;9689;51.052;13.772;2023-05-12T18:30:29;100501.13;;;17.20;51.33
19114;BME280;9689;51.052;13.772;2023-05-12T18:35:32;100511.53;;;17.03;51.69
19114;BME280;9689;51.052;13.772;2023-05-12T18:40:33;100512.06;;;16.90;52.41
19114;BME280;9689;51.052;13.772;2023-05-12T18:45:34;100516.94;;;16.79;52.79
19114;BME280;9689;51.052;13.772;2023-05-12T18:50:36;100520.69;;;16.74;53.38
19114;BME280;9689;51.052;13.772;2023-05-12T18:55:37;100533.53;;;16.59;53.77
19114;BME280;9689;51.052;13.772;2023-05-12T19:00:38;100533.84;;;16.52;54.38
19114;BME280;9689;51.052;13.772;2023-05-12T19:05:40;100543.28;;;16.35;55.02
19114;BME280;9689;51.052;13.772;2023-05-12T19:10:43;100548.09;;;16.24;55.63
19114;BME280;9689;51.052;13.772;2023-05-12T19:15:43;100546.94;;;16.09;56.75
19114;BME280;9689;51.052;13.772;2023-05-12T19:20:46;100556.59;;;15.86;56.67
19114;BME280;9689;51.052;13.772;2023-05-12T19:25:47;100565.56;;;15.80;57.43
19114;BME280;9689;51.052;13.772;2023-05-12T19:30:47;100579.16;;;15.68;58.17
19114;BME280;9689;51.052;13.772;2023-05-12T19:35:49;100586.03;;;15.47;59.50
19114;BME280;9689;51.052;13.772;2023-05-12T19:40:50;100595.03;;;15.40;60.85
19114;BME280;9689;51.052;13.772;2023-05-12T19:45:52;100590.97;;;15.31;61.74
19114;BME280;9689;51.052;13.772;2023-05-12T19:50:54;100601.59;;;15.26;62.46
19114;BME280;9689;51.052;13.772;2023-05-12T19:55:55;100608.53;;;15.04;63.38
19114;BME280;9689;51.052;13.772;2023-05-12T20:00:56;100616.16;;;14.84;64.44
19114;BME280;9689;51.052;13.772;2023-05-12T20:05:58;100612.31;;;14.67;65.33
19114;BME280;9689;51.052;13.772;2023-05-12T20:10:58;100614.72;;;14.47;66.20
19114;BME280;9689;51.052;13.772;2023-05-12T20:15:59;100616.84;;;14.34;67.27
19114;BME280;9689;51.052;13.772;2023-05-12T20:21:01;100631.09;;;14.24;67.57
19114;BME280;9689;51.052;13.772;2023-05-12T20:26:02;100615.75;;;14.12;68.81
19114;BME280;9689;51.052;13.772;2023-05-12T20:31:03;100615.84;;;14.09;69.64
19114;BME280;9689;51.052;13.772;2023-05-12T20:36:06;100611.09;;;13.92;69.40
19114;BME280;9689;51.052;13.772;2023-05-12T20:41:07;100628.00;;;13.82;70.32
19114;BME280;9689;51.052;13.772;2023-05-12T20:46:08;100617.78;;;13.71;71.34
19114;BME280;9689;51.052;13.772;2023-05-12T20:51:10;100628.16;;;13.76;71.25
19114;BME280;9689;51.052;13.772;2023-05-12T20:56:11;100640.16;;;13.52;72.13
19114;BME280;9689;51.052;13.772;2023-05-12T21:01:11;100639.28;;;13.51;72.26
19114;BME280;9689;51.052;13.772;2023-05-12T21:06:13;100635.22;;;13.41;73.09
19114;BME280;9689;51.052;13.772;2023-05-12T21:11:15;100635.34;;;13.35;73.71
19114;BME280;9689;51.052;13.772;2023-05-12T21:16:16;100642.34;;;13.35;73.45
19114;BME280;9689;51.052;13.772;2023-05-12T21:21:18;100651.25;;;13.27;74.27
19114;BME280;9689;51.052;13.772;2023-05-12T21:26:18;100653.44;;;13.09;74.58
19114;BME280;9689;51.052;13.772;2023-05-12T21:31:19;100660.81;;;12.93;75.02
19114;BME280;9689;51.052;13.772;2023-05-12T21:36:21;100660.34;;;12.76;76.32
19114;BME280;9689;51.052;13.772;2023-05-12T21:41:22;100661.41;;;12.68;77.48
19114;BME280;9689;51.052;13.772;2023-05-12T21:46:23;100676.41;;;12.59;77.12
19114;BME280;9689;51.052;13.772;2023-05-12T21:51:25;100675.66;;;12.54;77.78
19114;BME280;9689;51.052;13.772;2023-05-12T21:56:27;100682.50;;;12.61;76.84
19114;BME280;9689;51.052;13.772;2023-05-12T22:01:28;100694.00;;;12.52;77.93
19114;BME280;9689;51.052;13.772;2023-05-12T22:06:30;100697.44;;;12.54;77.26
19114;BME280;9689;51.052;13.772;2023-05-12T22:11:31;100691.78;;;12.32;79.42
19114;BME280;9689;51.052;13.772;2023-05-12T22:16:32;100693.66;;;12.27;79.41
19114;BME280;9689;51.052;13.772;2023-05-12T22:21:42;100694.56;;;12.25;79.39
19114;BME280;9689;51.052;13.772;2023-05-12T22:26:42;100699.09;;;12.18;79.45
19114;BME280;9689;51.052;13.772;2023-05-12T22:31:43;100705.31;;;12.11;79.85
19114;BME280;9689;51.052;13.772;2023-05-12T22:36:46;100702.97;;;11.97;81.05
19114;BME280;9689;51.052;13.772;2023-05-12T22:41:46;100714.44;;;11.88;81.15
19114;BME280;9689;51.052;13.772;2023-05-12T22:46:47;100715.34;;;11.87;80.79
19114;BME280;9689;51.052;13.772;2023-05-12T22:51:49;100715.56;;;11.74;81.36
19114;BME280;9689;51.052;13.772;2023-05-12T22:56:50;100722.72;;;11.64;82.53
19114;BME280;9689;51.052;13.772;2023-05-12T23:01:50;100735.91;;;11.56;82.02
19114;BME280;9689;51.052;13.772;2023-05-12T23:06:52;100735.16;;;11.48;82.56
19114;BME280;9689;51.052;13.772;2023-05-12T23:11:53;100728.22;;;11.46;82.62
19114;BME280;9689;51.052;13.772;2023-05-12T23:16:54;100730.03;;;11.42;81.51
19114;BME280;9689;51.052;13.772;2023-05-12T23:21:56;100730.13;;;11.36;82.22
19114;BME280;9689;51.052;13.772;2023-05-12T23:26:57;100732.78;;;11.33;82.04
19114;BME280;9689;51.052;13.772;2023-05-12T23:31:58;100723.34;;;11.26;82.34
19114;BME280;9689;51.052;13.772;2023-05-12T23:37:00;100721.69;;;11.20;82.78
19114;BME280;9689;51.052;13.772;2023-05-12T23:42:00;100740.06;;;11.11;82.77
19114;BME280;9689;51.052;13.772;2023-05-12T23:47:02;100735.84;;;11.06;82.18
19114;BME280;9689;51.052;13.772;2023-05-12T23:52:04;100728.88;;;11.06;82.64
19114;BME280;9689;51.052;13.772;2023-05-12T23:57:05;100726.34;;;11.00;81.69
